Time;durP1;ratioP1;P1;durP2;ratioP2;P2;SDS_P1;SDS_P2;PMS_P1;PMS_P2;Temp;Humidity;BMP_temperature;BMP_pressure;BME280_temperature;BME280_humidity;BME280_pressure;Samples;Min_cycle;Max_cycle;Signal;HPM_P1;HPM_P2
2023/02/21 02:15:01;;;;;;;;;25.75;18.50;;;;;21.43;35.18;101527.97;5078210;27;45303;-72
2023/02/21 02:17:43;;;;;;;;;24.75;22.00;;;;;21.43;34.92;101529.81;5079659;27;45282;-72
2023/02/21 02:20:18;;;;;;;;;21.75;18.25;;;;;21.43;35.16;101527.13;5078881;27;45497;-72
2023/02/21 02:23:14;;;;;;;;;18.75;18.25;;;;;21.42;34.65;101528.94;5074316;27;45426;-72
2023/02/21 02:26:03;;;;;;;;;22.75;18.00;;;;;21.40;34.75;101514.84;5071930;27;45708;-72
2023/02/21 02:28:37;;;;;;;;;23.50;19.50;;;;;21.42;35.16;101526.28;5069153;27;45388;-72
2023/02/21 02:31:21;;;;;;;;;20.75;20.25;;;;;21.39;35.19;101513.16;5067430;27;45532;-72
2023/02/21 02:33:49;;;;;;;;;21.75;20.00;;;;;21.40;35.26;101506.84;5092106;27;47219;-72
2023/02/21 02:36:29;;;;;;;;;19.50;17.00;;;;;21.39;35.11;101501.66;5082586;27;45975;-72
2023/02/21 02:39:04;;;;;;;;;22.50;20.00;;;;;21.38;34.89;101499.94;5069255;27;45391;-72
2023/02/21 02:41:54;;;;;;;;;23.75;19.00;;;;;21.38;34.90;101495.44;5073276;27;45892;-71
2023/02/21 02:44:34;;;;;;;;;22.25;19.00;;;;;21.31;35.19;101483.47;5063998;27;45581;-71
2023/02/21 02:47:01;;;;;;;;;24.00;21.00;;;;;21.36;34.61;101493.84;5072954;27;45916;-72
2023/02/21 02:49:28;;;;;;;;;22.75;17.25;;;;;21.36;34.97;101497.34;5075098;27;45323;-72
2023/02/21 02:51:54;;;;;;;;;21.50;20.75;;;;;21.34;34.78;101491.25;5074561;27;45394;-72
2023/02/21 02:54:20;;;;;;;;;21.50;19.00;;;;;21.37;34.96;101492.88;5059764;28;47294;-73
2023/02/21 02:56:45;;;;;;;;;18.25;15.75;;;;;21.36;35.28;101488.50;5077411;27;45275;-73
2023/02/21 02:59:16;;;;;;;;;22.00;18.50;;;;;21.35;35.06;101478.81;5074372;27;45507;-72
2023/02/21 03:01:48;;;;;;;;;24.25;19.75;;;;;21.37;35.06;101488.44;5060714;28;45474;-72
2023/02/21 03:04:29;;;;;;;;;15.25;13.75;;;;;21.38;35.25;101483.94;5082786;27;46108;-72
2023/02/21 03:07:01;;;;;;;;;18.00;15.50;;;;;21.37;35.13;101472.44;5092673;27;45743;-72
2023/02/21 03:09:51;;;;;;;;;27.50;19.25;;;;;21.38;35.08;101479.47;5076296;27;45327;-72
2023/02/21 03:12:23;;;;;;;;;21.25;17.25;;;;;21.38;34.81;101474.16;5076636;27;45383;-72
2023/02/21 03:14:59;;;;;;;;;19.25;18.00;;;;;21.39;35.32;101472.38;5077292;27;45173;-72
2023/02/21 03:17:27;;;;;;;;;20.25;15.25;;;;;21.38;34.88;101471.47;5077886;27;45314;-72
2023/02/21 03:19:53;;;;;;;;;26.00;19.25;;;;;21.41;35.06;101465.97;5067698;27;45581;-73
2023/02/21 03:22:21;;;;;;;;;24.75;18.75;;;;;21.39;34.76;101457.22;5069813;27;55814;-72
2023/02/21 03:24:48;;;;;;;;;18.50;17.00;;;;;21.40;34.91;101469.56;5079727;27;45270;-72
2023/02/21 03:27:15;;;;;;;;;18.75;17.50;;;;;21.40;35.24;101464.25;5079220;27;45835;-72
2023/02/21 03:29:40;;;;;;;;;21.00;19.75;;;;;21.38;34.67;101465.31;5078312;27;45531;-72
2023/02/21 03:34:45;;;;;;;;;16.75;16.75;;;;;21.46;35.25;101464.88;5076139;27;45213;-72
2023/02/21 03:37:34;;;;;;;;;21.00;19.50;;;;;21.46;35.23;101462.19;5107867;27;57760;-72
2023/02/21 03:40:00;;;;;;;;;19.75;16.75;;;;;21.46;34.75;101465.75;5070733;27;45386;-72
2023/02/21 03:42:25;;;;;;;;;18.00;16.50;;;;;21.43;35.18;101457.91;5074352;27;47000;-72
2023/02/21 03:44:51;;;;;;;;;22.50;18.25;;;;;21.43;35.05;101456.09;5109754;27;67045;-73
2023/02/21 03:47:16;;;;;;;;;19.50;18.00;;;;;21.48;35.16;101457.63;5073515;27;61770;-73
2023/02/21 03:49:42;;;;;;;;;22.00;19.25;;;;;21.47;34.98;101456.78;5091843;27;63046;-72
2023/02/21 03:52:11;;;;;;;;;23.75;20.00;;;;;21.47;34.84;101458.59;5069196;27;45345;-73
2023/02/21 03:54:37;;;;;;;;;23.50;19.50;;;;;21.47;35.00;101456.78;5076780;27;46061;-72
2023/02/21 03:57:02;;;;;;;;;22.25;21.00;;;;;21.45;34.68;101449.81;5079159;27;45292;-72
2023/02/21 03:59:28;;;;;;;;;26.00;21.75;;;;;21.44;34.84;101448.94;5082810;27;50659;-72
2023/02/21 04:01:53;;;;;;;;;20.50;20.25;;;;;21.45;34.69;101444.50;5078312;28;64669;-72
2023/02/21 04:04:18;;;;;;;;;24.50;22.25;;;;;21.47;35.09;101443.47;5081571;27;46179;-72
2023/02/21 04:06:44;;;;;;;;;24.25;21.25;;;;;21.44;34.84;101435.63;5069702;27;57359;-72
2023/02/21 04:09:09;;;;;;;;;23.50;21.00;;;;;21.45;35.06;101440.03;5080291;27;45665;-72
2023/02/21 04:11:34;;;;;;;;;21.75;19.75;;;;;21.45;34.51;101440.03;5076758;27;67328;-72
2023/02/21 04:14:00;;;;;;;;;22.25;19.00;;;;;21.45;34.55;101433.84;5081786;27;54923;-72
2023/02/21 04:16:25;;;;;;;;;27.50;22.75;;;;;21.41;34.68;101427.84;5076949;27;69389;-72
2023/02/21 04:18:51;;;;;;;;;25.75;20.75;;;;;21.45;34.47;101432.03;5075077;27;46813;-72
2023/02/21 04:21:18;;;;;;;;;26.25;23.00;;;;;21.46;35.01;101432.91;5073001;27;45465;-72
2023/02/21 04:23:43;;;;;;;;;23.50;21.25;;;;;21.42;34.87;101430.44;5075699;27;46051;-72
2023/02/21 04:26:08;;;;;;;;;21.50;19.50;;;;;21.43;34.46;101434.78;5075568;27;51990;-72
2023/02/21 04:28:34;;;;;;;;;24.00;21.50;;;;;21.42;34.86;101441.06;5076602;27;55946;-72
2023/02/21 04:30:59;;;;;;;;;29.00;23.00;;;;;21.40;34.65;101442.94;5078511;27;45590;-72
2023/02/21 04:33:25;;;;;;;;;27.00;23.50;;;;;21.41;34.29;101450.00;5060847;28;48252;-72
2023/02/21 04:35:50;;;;;;;;;29.25;25.00;;;;;21.41;34.77;101452.66;5071332;27;45423;-72
2023/02/21 04:38:16;;;;;;;;;31.25;25.25;;;;;21.38;34.30;101446.66;5080154;27;45755;-72
2023/02/21 04:40:41;;;;;;;;;23.00;22.00;;;;;21.35;34.89;101436.19;5075594;27;57632;-72
2023/02/21 04:43:06;;;;;;;;;28.50;26.00;;;;;21.37;34.77;101439.63;5074785;27;47215;-73
2023/02/21 04:45:32;;;;;;;;;27.50;24.50;;;;;21.35;34.54;101430.88;5074641;27;45347;-72
2023/02/21 04:47:57;;;;;;;;;27.00;21.50;;;;;21.34;34.81;101443.34;5077662;27;45319;-72
2023/02/21 04:50:23;;;;;;;;;27.75;21.75;;;;;21.35;34.23;101436.19;5076068;27;45221;-72
2023/02/21 04:52:49;;;;;;;;;28.50;22.25;;;;;21.35;34.59;101433.53;5076228;27;45441;-72
2023/02/21 04:55:15;;;;;;;;;32.25;25.75;;;;;21.33;34.40;101432.78;5113664;27;45506;-72
2023/02/21 04:57:40;;;;;;;;;31.25;27.00;;;;;21.32;34.50;101436.38;5080027;28;45377;-72
2023/02/21 05:00:07;;;;;;;;;27.50;24.75;;;;;21.33;34.59;101438.09;5072338;27;62688;-72
2023/02/21 05:02:32;;;;;;;;;31.25;27.75;;;;;21.31;34.22;101440.84;5074446;27;45398;-72
2023/02/21 05:04:58;;;;;;;;;27.25;24.75;;;;;21.30;34.47;101430.28;5078376;27;45359;-72
2023/02/21 05:07:23;;;;;;;;;33.75;25.50;;;;;21.30;34.30;101441.81;5063404;28;45567;-72
2023/02/21 05:09:49;;;;;;;;;32.25;25.50;;;;;21.28;34.72;101433.06;5074951;27;58633;-72
2023/02/21 05:12:14;;;;;;;;;29.75;24.00;;;;;21.28;34.66;101432.19;5064113;27;45878;-72
2023/02/21 05:14:40;;;;;;;;;33.00;25.50;;;;;21.28;34.34;101433.06;5075659;27;45535;-72
2023/02/21 05:17:07;;;;;;;;;29.25;24.25;;;;;21.28;34.50;101440.19;5075046;27;45600;-72
2023/02/21 05:19:32;;;;;;;;;29.00;26.00;;;;;21.27;34.57;101435.84;5078349;27;45380;-72
2023/02/21 05:22:00;;;;;;;;;28.25;23.25;;;;;21.26;34.43;101434.09;5076526;27;45228;-72
2023/02/21 05:24:27;;;;;;;;;30.75;22.25;;;;;21.26;34.56;101437.63;5076168;27;45337;-72
2023/02/21 05:26:53;;;;;;;;;31.75;25.75;;;;;21.23;34.41;101435.16;5074944;27;45445;-72
2023/02/21 05:29:18;;;;;;;;;31.25;25.50;;;;;21.23;34.25;101435.16;5077020;27;45503;-73
2023/02/21 05:31:44;;;;;;;;;28.00;25.25;;;;;21.21;34.90;101434.38;5072115;27;46030;-73
2023/02/21 05:34:10;;;;;;;;;32.00;24.50;;;;;21.19;34.73;101434.47;5075582;27;45855;-73
2023/02/21 05:36:35;;;;;;;;;26.75;25.50;;;;;21.18;34.54;101431.91;5076619;27;45304;-72
2023/02/21 05:39:01;;;;;;;;;26.75;21.75;;;;;21.19;34.99;101425.63;5077404;27;45407;-72
2023/02/21 05:41:26;;;;;;;;;29.50;24.00;;;;;21.21;34.99;101421.94;5074970;27;46330;-72
2023/02/21 05:43:55;;;;;;;;;31.50;26.00;;;;;21.20;34.83;101412.22;5061190;27;62265;-71
2023/02/21 05:46:24;;;;;;;;;26.75;23.50;;;;;21.16;34.96;101400.06;5074316;27;45501;-72
2023/02/21 05:48:49;;;;;;;;;26.75;24.50;;;;;21.20;35.04;101406.06;5067442;27;45272;-72
2023/02/21 05:51:15;;;;;;;;;31.50;23.50;;;;;21.24;34.95;101407.56;5092923;27;47183;-71
2023/02/21 05:53:40;;;;;;;;;30.50;25.00;;;;;21.23;35.10;101397.91;5079128;27;45490;-72
2023/02/21 05:56:06;;;;;;;;;29.75;26.25;;;;;21.20;35.02;101392.75;5059192;27;46041;-72
2023/02/21 05:58:31;;;;;;;;;27.25;25.25;;;;;21.24;34.54;101394.25;5062995;27;45543;-72
2023/02/21 06:00:57;;;;;;;;;30.50;27.00;;;;;21.23;34.64;101398.75;5063061;27;63360;-72
2023/02/21 06:03:22;;;;;;;;;31.75;27.00;;;;;21.22;34.64;101393.50;5079620;27;45348;-72
2023/02/21 06:05:47;;;;;;;;;30.75;26.50;;;;;21.20;34.58;101384.75;5076027;27;62084;-72
2023/02/21 06:08:13;;;;;;;;;34.00;29.75;;;;;21.22;34.57;101398.84;5069062;27;64331;-72
2023/02/21 06:10:38;;;;;;;;;32.75;27.00;;;;;21.24;34.58;101396.94;5059052;28;71100;-72
2023/02/21 06:13:03;;;;;;;;;30.00;27.25;;;;;21.22;35.05;101390.84;5056036;28;63207;-71
2023/02/21 06:15:29;;;;;;;;;30.75;29.50;;;;;21.23;34.54;101395.22;5067762;27;45527;-71
2023/02/21 06:17:54;;;;;;;;;29.00;25.50;;;;;21.24;34.60;101389.78;5077898;27;45573;-72
2023/02/21 06:20:19;;;;;;;;;32.50;27.50;;;;;21.23;34.97;101385.44;5071259;27;62354;-71
2023/02/21 06:22:46;;;;;;;;;31.50;26.50;;;;;21.24;34.89;101384.47;5078056;27;45389;-72
2023/02/21 06:25:12;;;;;;;;;31.50;26.50;;;;;21.23;34.87;101382.78;5074027;27;45603;-73
2023/02/21 06:27:37;;;;;;;;;35.00;27.25;;;;;21.24;35.22;101384.47;5075975;27;45604;-72
2023/02/21 06:30:04;;;;;;;;;33.75;29.00;;;;;21.22;34.70;101381.03;5068893;27;65074;-72
2023/02/21 06:32:30;;;;;;;;;29.00;28.50;;;;;21.24;35.03;101380.97;5069787;27;45460;-74
2023/02/21 06:34:55;;;;;;;;;31.75;28.25;;;;;21.22;34.89;101375.72;5105099;27;45491;-71
2023/02/21 06:37:21;;;;;;;;;35.75;29.75;;;;;21.23;35.06;101374.78;5076328;27;45449;-71
2023/02/21 06:39:46;;;;;;;;;34.50;30.00;;;;;21.23;34.84;101368.63;5073106;27;46045;-72
2023/02/21 06:42:16;;;;;;;;;34.25;25.75;;;;;21.23;34.87;101366.78;5074463;27;53558;-71
2023/02/21 06:44:45;;;;;;;;;35.75;30.25;;;;;21.24;35.35;101363.16;5077661;27;45534;-74
2023/02/21 06:47:11;;;;;;;;;34.00;29.50;;;;;21.24;34.98;101355.19;5072864;27;45772;-73
2023/02/21 06:49:37;;;;;;;;;34.50;29.25;;;;;21.23;34.95;101358.81;5072395;28;45372;-75
2023/02/21 06:52:02;;;;;;;;;27.25;26.25;;;;;21.26;35.45;101367.56;5102425;27;61808;-71
2023/02/21 06:54:28;;;;;;;;;34.00;30.50;;;;;21.25;35.49;101358.72;5064833;27;47270;-72
2023/02/21 06:56:55;;;;;;;;;33.00;30.00;;;;;21.23;35.17;101350.81;5070747;28;45452;-72
2023/02/21 06:59:20;;;;;;;;;37.50;31.50;;;;;21.26;35.59;101360.41;5053004;28;45494;-73
2023/02/21 07:01:45;;;;;;;;;40.00;30.25;;;;;21.23;35.26;101356.16;5051269;28;48777;-74
2023/02/21 07:04:11;;;;;;;;;37.50;30.50;;;;;21.26;35.80;101352.44;5061163;28;45454;-72
2023/02/21 07:06:37;;;;;;;;;33.75;30.50;;;;;21.24;35.51;101349.84;5112377;27;45394;-71
2023/02/21 07:09:02;;;;;;;;;31.25;27.00;;;;;21.26;35.34;101352.44;5078400;27;59620;-72
2023/02/21 07:11:30;;;;;;;;;29.75;26.00;;;;;21.27;35.86;101355.97;5076813;28;45376;-71
2023/02/21 07:13:58;;;;;;;;;29.25;26.25;;;;;21.26;36.07;101351.59;5058127;28;45319;-70
2023/02/21 07:16:24;;;;;;;;;32.25;27.00;;;;;21.29;35.92;101359.38;5078451;27;45441;-71
2023/02/21 07:18:49;;;;;;;;;40.50;32.50;;;;;21.31;35.44;101363.66;5072467;28;45477;-71
2023/02/21 07:21:15;;;;;;;;;46.50;36.25;;;;;21.33;35.20;101364.41;5065344;27;45652;-73
2023/02/21 07:23:42;;;;;;;;;49.25;37.00;;;;;21.33;34.87;101372.41;5077248;27;60409;-73
2023/02/21 07:26:07;;;;;;;;;52.75;39.25;;;;;21.33;35.06;101360.91;5076763;28;45317;-73
2023/02/21 07:28:33;;;;;;;;;45.50;36.50;;;;;21.34;34.69;101354.63;5101213;27;62883;-74
2023/02/21 07:30:58;;;;;;;;;43.75;34.50;;;;;21.31;35.34;101353.00;5089530;27;45579;-71
2023/02/21 07:33:23;;;;;;;;;45.50;34.75;;;;;21.33;34.75;101351.09;5072307;27;49253;-72
2023/02/21 07:35:49;;;;;;;;;42.50;33.50;;;;;21.31;35.02;101353.00;5068093;27;66094;-72
2023/02/21 07:38:26;;;;;;;;;40.50;34.00;;;;;21.34;34.87;101351.97;5071548;27;60917;-72
2023/02/21 07:40:55;;;;;;;;;39.75;31.50;;;;;21.34;35.38;101346.66;5058089;28;45259;-71
2023/02/21 07:43:21;;;;;;;;;35.25;30.50;;;;;21.34;35.08;101354.63;5076821;27;46509;-71
2023/02/21 07:45:47;;;;;;;;;45.25;33.25;;;;;21.36;35.51;101347.41;5076763;28;45569;-71
2023/02/21 07:48:13;;;;;;;;;42.25;33.75;;;;;21.37;35.44;101347.31;5078556;27;46295;-71
2023/02/21 07:50:42;;;;;;;;;34.75;31.25;;;;;21.39;35.19;101339.22;5062818;28;46126;-73
2023/02/21 07:53:09;;;;;;;;;36.00;30.50;;;;;21.39;35.26;101348.06;5072794;27;45454;-73
2023/02/21 07:55:34;;;;;;;;;33.75;28.50;;;;;21.38;35.03;101334.84;5094301;27;45516;-75
2023/02/21 07:58:00;;;;;;;;;43.50;33.50;;;;;21.43;35.56;101348.72;5074709;27;45326;-71
2023/02/21 08:00:25;;;;;;;;;34.00;29.50;;;;;21.42;35.43;101339.00;5068228;28;45365;-72
2023/02/21 08:02:51;;;;;;;;;37.75;30.00;;;;;21.46;35.62;101339.72;5072725;27;45310;-72
2023/02/21 08:05:17;;;;;;;;;38.75;29.50;;;;;21.46;35.84;101345.91;5073159;27;45644;-72
2023/02/21 08:07:43;;;;;;;;;35.25;30.00;;;;;21.50;35.54;101351.91;5069736;27;45515;-72
2023/02/21 08:10:10;;;;;;;;;39.25;31.50;;;;;21.50;35.70;101343.91;5089553;27;45496;-74
2023/02/21 08:12:35;;;;;;;;;34.75;28.75;;;;;21.47;36.00;101336.94;5054909;28;45482;-74
2023/02/21 08:15:00;;;;;;;;;28.75;26.25;;;;;21.51;35.45;101335.78;5064940;27;45450;-74
2023/02/21 08:17:26;;;;;;;;;38.50;32.50;;;;;21.53;35.87;101333.91;5086537;27;66483;-74
2023/02/21 08:19:51;;;;;;;;;35.50;29.25;;;;;21.52;35.81;101328.69;5075567;27;45513;-74
2023/02/21 08:22:17;;;;;;;;;28.50;27.25;;;;;21.54;35.67;101332.94;5059409;28;45184;-74
2023/02/21 08:24:43;;;;;;;;;31.00;26.75;;;;;21.55;36.06;101337.31;5075803;27;45581;-74
2023/02/21 08:27:08;;;;;;;;;33.25;28.50;;;;;21.57;35.96;101342.56;5068179;27;46115;-74
2023/02/21 08:29:34;;;;;;;;;30.25;24.50;;;;;21.58;35.34;101338.94;5076016;27;45452;-74
2023/02/21 08:31:59;;;;;;;;;35.00;30.00;;;;;21.58;35.74;101337.13;5081907;27;58463;-74
2023/02/21 08:34:28;;;;;;;;;27.00;25.25;;;;;21.60;35.72;101342.34;5069080;27;45366;-74
2023/02/21 08:36:53;;;;;;;;;25.50;22.75;;;;;21.60;35.46;101331.69;5066577;28;45625;-74
2023/02/21 08:39:18;;;;;;;;;21.50;20.00;;;;;21.59;35.81;101324.66;5074348;27;45439;-74
2023/02/21 08:41:45;;;;;;;;;28.75;25.75;;;;;21.62;35.90;101329.81;5086025;27;45339;-74
2023/02/21 08:44:15;;;;;;;;;31.25;25.25;;;;;21.64;35.43;101333.22;5082643;27;45265;-74
2023/02/21 08:46:40;;;;;;;;;31.00;24.25;;;;;21.63;35.69;101322.66;5059490;28;47534;-75
2023/02/21 08:49:06;;;;;;;;;28.25;23.75;;;;;21.63;35.63;101331.50;5097940;27;45392;-74
2023/02/21 08:51:32;;;;;;;;;28.25;23.00;;;;;21.64;35.31;101327.91;5076524;27;45293;-75
2023/02/21 08:53:58;;;;;;;;;26.75;22.25;;;;;21.67;35.90;101333.00;5060784;28;45607;-74
2023/02/21 08:56:25;;;;;;;;;36.25;24.75;;;;;21.66;35.76;101328.66;5083643;28;46029;-75
2023/02/21 08:58:52;;;;;;;;;26.00;19.75;;;;;21.69;35.72;101324.91;5083756;27;45275;-75
2023/02/21 09:01:18;;;;;;;;;24.75;21.25;;;;;21.68;35.49;101332.06;5090632;27;45150;-74
2023/02/21 09:03:43;;;;;;;;;28.00;23.50;;;;;21.69;35.87;101330.25;5089877;27;66150;-74
2023/02/21 09:06:09;;;;;;;;;23.25;21.75;;;;;21.69;35.76;101331.13;5082144;27;45060;-74
2023/02/21 09:08:37;;;;;;;;;26.75;22.75;;;;;21.73;35.73;101331.78;5091943;28;55311;-74
2023/02/21 09:11:03;;;;;;;;;25.50;23.25;;;;;21.75;35.67;101332.53;5097358;27;44769;-75
2023/02/21 09:13:31;;;;;;;;;21.50;19.00;;;;;21.75;35.78;101336.03;5085236;27;45246;-74
2023/02/21 09:15:57;;;;;;;;;26.25;24.00;;;;;21.74;35.45;101336.13;5089905;27;45544;-74
2023/02/21 09:18:22;;;;;;;;;26.50;23.25;;;;;21.74;35.75;101331.69;5070935;27;45588;-75
2023/02/21 09:20:56;;;;;;;;;25.50;20.50;;;;;21.74;35.57;101337.00;5072599;27;45473;-75
2023/02/21 09:23:26;;;;;;;;;32.00;25.75;;;;;21.78;35.85;101335.84;5071760;27;45244;-74
2023/02/21 09:25:52;;;;;;;;;24.75;21.00;;;;;21.79;35.67;101336.69;5076094;27;46669;-74
2023/02/21 09:28:18;;;;;;;;;27.25;19.75;;;;;21.82;35.53;101338.31;5060462;28;45347;-74
2023/02/21 09:30:44;;;;;;;;;29.75;25.25;;;;;21.80;35.55;101335.75;5062355;27;45598;-74
2023/02/21 09:33:10;;;;;;;;;26.00;22.00;;;;;21.83;35.49;101338.19;5076413;27;52624;-75
2023/02/21 09:35:35;;;;;;;;;24.50;21.00;;;;;21.84;35.62;101336.41;5071577;27;45339;-74
2023/02/21 09:38:01;;;;;;;;;26.50;21.25;;;;;21.84;35.34;101331.09;5064489;27;45208;-75
2023/02/21 09:40:42;;;;;;;;;28.00;22.50;;;;;21.87;35.16;101328.19;5099529;27;45374;-74
2023/02/21 09:43:36;;;;;;;;;25.25;22.75;;;;;21.89;35.03;101331.63;5077172;27;45570;-75
2023/02/21 09:46:06;;;;;;;;;25.00;23.50;;;;;21.87;35.69;101323.75;5066283;27;45648;-74
2023/02/21 09:48:32;;;;;;;;;28.25;23.00;;;;;21.89;35.34;101323.66;5079340;28;45211;-74
2023/02/21 09:51:06;;;;;;;;;26.25;24.00;;;;;21.87;35.69;101323.75;5079203;27;45521;-74
2023/02/21 09:53:35;;;;;;;;;27.50;21.75;;;;;21.91;35.21;101319.06;5078930;28;45221;-74
2023/02/21 09:56:10;;;;;;;;;25.50;18.75;;;;;21.93;35.16;101322.47;5078360;28;46533;-74
2023/02/21 09:58:42;;;;;;;;;30.25;20.75;;;;;21.94;35.59;101322.38;5076950;27;45465;-74
2023/02/21 10:01:20;;;;;;;;;21.50;20.00;;;;;21.93;35.05;101317.16;5072615;27;45308;-74
2023/02/21 10:04:06;;;;;;;;;24.75;22.50;;;;;21.96;35.52;101317.81;5071641;27;45370;-75
2023/02/21 10:06:56;;;;;;;;;21.50;21.00;;;;;21.98;35.14;101315.03;5076640;27;46601;-74
2023/02/21 10:09:30;;;;;;;;;24.50;22.00;;;;;21.99;35.03;101317.59;5070421;27;45309;-74
2023/02/21 10:12:07;;;;;;;;;25.25;22.75;;;;;22.00;35.19;101319.28;5079292;27;45234;-74
2023/02/21 10:15:02;;;;;;;;;24.00;22.25;;;;;22.01;35.58;101317.50;5080427;27;45231;-74
2023/02/21 10:17:46;;;;;;;;;23.25;21.00;;;;;22.02;35.29;101313.88;5073802;27;46081;-75
2023/02/21 10:20:15;;;;;;;;;25.75;21.75;;;;;22.02;35.25;101321.03;5079732;27;45882;-74
2023/02/21 10:22:45;;;;;;;;;19.25;18.00;;;;;22.05;35.47;101312.84;5066408;28;45640;-74
2023/02/21 10:25:30;;;;;;;;;22.00;19.50;;;;;22.04;35.23;101313.78;5078485;27;45319;-74
2023/02/21 10:27:57;;;;;;;;;26.75;20.25;;;;;22.05;35.40;101316.34;5073715;28;45297;-74
2023/02/21 10:30:35;;;;;;;;;20.75;20.50;;;;;22.08;35.17;101318.81;5099811;27;45260;-74
2023/02/21 10:33:05;;;;;;;;;24.50;19.50;;;;;22.09;34.99;101317.84;5075612;28;45505;-74
2023/02/21 10:35:31;;;;;;;;;23.50;19.75;;;;;22.11;35.52;101315.06;5072562;27;45604;-74
2023/02/21 10:37:58;;;;;;;;;23.50;17.00;;;;;22.13;35.03;101313.16;5073145;27;45431;-74
2023/02/21 10:40:42;;;;;;;;;21.50;19.50;;;;;22.14;35.29;101310.38;5073479;27;45784;-74
2023/02/21 10:43:19;;;;;;;;;19.25;17.75;;;;;22.15;35.17;101306.78;5070453;27;45532;-74
2023/02/21 10:45:58;;;;;;;;;23.25;18.75;;;;;22.17;35.14;101304.88;5092044;27;45938;-74
2023/02/21 10:48:27;;;;;;;;;21.50;18.75;;;;;22.18;35.45;101303.03;5091352;27;46242;-74
2023/02/21 10:51:02;;;;;;;;;22.50;19.25;;;;;22.19;35.24;101294.94;5075792;27;45758;-74
2023/02/21 10:53:30;;;;;;;;;18.75;16.00;;;;;22.18;35.64;101284.38;5078469;27;45995;-74
2023/02/21 10:56:26;;;;;;;;;19.25;16.50;;;;;22.18;35.27;101281.72;5074120;27;45330;-74
2023/02/21 10:58:53;;;;;;;;;26.75;20.75;;;;;22.25;35.53;101288.34;5060955;27;45606;-75
2023/02/21 11:01:20;;;;;;;;;15.25;14.50;;;;;22.25;35.62;101292.81;5078452;27;45388;-74
2023/02/21 11:03:59;;;;;;;;;17.75;17.75;;;;;22.26;35.02;101287.41;5079905;27;45295;-74
2023/02/21 11:06:30;;;;;;;;;22.00;18.00;;;;;22.27;35.22;101285.59;5077427;27;45534;-75
2023/02/21 11:08:56;;;;;;;;;21.50;18.75;;;;;22.26;34.81;101282.06;5078885;27;46399;-75
2023/02/21 11:11:33;;;;;;;;;23.50;16.25;;;;;22.29;35.23;101281.91;5075863;27;45293;-75
2023/02/21 11:14:16;;;;;;;;;24.75;18.50;;;;;22.30;35.30;101278.25;5077206;28;45381;-75
2023/02/21 11:16:42;;;;;;;;;18.75;17.75;;;;;22.29;35.21;101279.22;5092944;27;45197;-75
2023/02/21 11:19:12;;;;;;;;;19.25;19.00;;;;;22.31;35.68;101271.97;5059135;27;47918;-75
2023/02/21 11:21:37;;;;;;;;;16.75;16.75;;;;;22.32;35.43;101270.16;5080993;27;45381;-75
2023/02/21 11:24:05;;;;;;;;;18.25;18.25;;;;;22.33;35.50;101274.53;5079061;27;56764;-75
2023/02/21 11:26:44;;;;;;;;;17.50;16.25;;;;;22.31;34.94;101255.97;5075436;27;45540;-75
2023/02/21 11:29:17;;;;;;;;;19.25;15.25;;;;;22.36;35.31;101260.97;5076765;27;46198;-75
2023/02/21 11:31:43;;;;;;;;;20.50;19.50;;;;;22.39;35.27;101259.94;5078913;27;45799;-75
2023/02/21 11:34:11;;;;;;;;;14.25;10.00;;;;;22.36;34.96;101253.84;5077773;27;45472;-75
2023/02/21 11:36:38;;;;;;;;;19.75;16.75;;;;;22.39;34.99;101246.59;5069018;27;45582;-75
2023/02/21 11:39:04;;;;;;;;;8.00;4.00;;;;;22.40;35.10;101243.81;5078876;27;45433;-75
2023/02/21 11:41:44;;;;;;;;;19.50;15.75;;;;;22.39;35.14;101233.25;5079369;27;45242;-75
2023/02/21 11:44:40;;;;;;;;;18.75;15.75;;;;;22.42;35.52;101227.72;5077368;27;45454;-75
2023/02/21 11:47:13;;;;;;;;;23.25;18.00;;;;;22.41;34.99;101226.00;5070816;28;45428;-75
2023/02/21 11:49:58;;;;;;;;;20.75;17.00;;;;;22.40;34.96;101227.81;5107172;27;45526;-76
2023/02/21 11:52:43;;;;;;;;;21.00;17.25;;;;;22.35;35.40;101209.47;5077430;27;45377;-75
2023/02/21 11:55:15;;;;;;;;;19.75;17.50;;;;;22.40;35.35;101214.50;5066504;27;45465;-75
2023/02/21 11:57:53;;;;;;;;;20.00;18.00;;;;;22.40;35.07;101208.28;5077360;27;45469;-75
2023/02/21 12:00:31;;;;;;;;;20.00;17.00;;;;;22.36;35.08;101194.31;5073694;27;47354;-75
2023/02/21 12:02:59;;;;;;;;;21.25;19.00;;;;;22.40;35.31;101192.28;5072331;27;45962;-75
2023/02/21 12:05:46;;;;;;;;;19.50;15.25;;;;;22.41;35.43;101194.00;5077308;27;45261;-75
2023/02/21 12:08:26;;;;;;;;;14.25;10.75;;;;;22.39;34.86;101187.94;5076845;27;45575;-75
2023/02/21 12:11:26;;;;;;;;;23.00;18.00;;;;;22.39;35.34;101182.59;5075521;27;48323;-75
2023/02/21 12:14:29;;;;;;;;;19.00;16.25;;;;;22.37;35.31;101175.53;5070421;27;45251;-75
2023/02/21 12:17:03;;;;;;;;;19.00;12.75;;;;;22.37;35.37;101164.03;5073834;27;45371;-75
2023/02/21 12:19:47;;;;;;;;;18.00;13.75;;;;;22.39;35.01;101172.78;5078362;27;45450;-75
2023/02/21 12:22:14;;;;;;;;;8.25;5.25;;;;;22.39;35.04;101154.09;5077638;27;46339;-76
2023/02/21 12:25:01;;;;;;;;;14.75;13.00;;;;;22.40;35.22;101150.50;5074967;27;45311;-76
2023/02/21 12:27:38;;;;;;;;;12.75;11.00;;;;;22.42;35.07;101151.22;5082384;27;45406;-75
2023/02/21 12:30:18;;;;;;;;;14.50;12.75;;;;;22.43;34.96;101139.59;5080461;27;45327;-75
2023/02/21 12:33:09;;;;;;;;;12.00;12.00;;;;;22.45;35.10;101145.69;5080098;27;46716;-75
2023/02/21 12:36:04;;;;;;;;;14.50;12.50;;;;;22.46;35.34;101135.88;5066091;28;45428;-75
2023/02/21 12:38:41;;;;;;;;;11.00;11.00;;;;;22.46;35.63;101134.03;5078263;27;45425;-76
2023/02/21 12:41:19;;;;;;;;;11.75;11.75;;;;;22.49;35.64;101125.00;5077555;27;45411;-75
2023/02/21 12:44:04;;;;;;;;;16.50;11.50;;;;;22.50;35.66;101122.19;5081784;27;46411;-75
2023/02/21 12:46:36;;;;;;;;;11.00;10.75;;;;;22.52;35.39;101112.28;5074181;27;45835;-75
2023/02/21 12:49:12;;;;;;;;;14.50;10.75;;;;;22.52;35.53;101104.28;5070787;27;45513;-75
2023/02/21 12:51:43;;;;;;;;;12.50;10.75;;;;;22.53;35.28;101103.31;5081472;27;45445;-75
2023/02/21 12:54:23;;;;;;;;;15.50;11.75;;;;;22.54;35.29;101099.69;5076770;27;45431;-75
2023/02/21 12:57:00;;;;;;;;;12.50;11.75;;;;;22.51;35.49;101089.22;5059163;28;45903;-76
2023/02/21 12:59:44;;;;;;;;;12.00;11.25;;;;;22.54;35.36;101093.47;5080479;27;45375;-75
2023/02/21 13:02:18;;;;;;;;;10.75;10.00;;;;;22.52;35.57;101076.72;5070084;27;45307;-75
2023/02/21 13:04:47;;;;;;;;;14.00;12.50;;;;;22.52;35.39;101069.59;5080334;27;45678;-75
2023/02/21 13:07:24;;;;;;;;;14.50;12.25;;;;;22.50;35.18;101060.00;5079826;27;45346;-75
2023/02/21 13:10:25;;;;;;;;;11.00;11.00;;;;;22.53;35.19;101067.78;5077795;27;45465;-75
2023/02/21 13:13:02;;;;;;;;;16.00;11.75;;;;;22.52;35.14;101063.41;5095597;27;45956;-75
2023/02/21 13:15:30;;;;;;;;;14.00;13.25;;;;;22.49;35.09;101053.81;5072541;27;47681;-75
2023/02/21 13:18:47;;;;;;;;;13.25;11.75;;;;;22.51;35.44;101056.38;5077109;27;45801;-75
2023/02/21 13:21:31;;;;;;;;;11.25;9.25;;;;;22.51;34.97;101056.38;5058151;27;45528;-75
2023/02/21 13:24:39;;;;;;;;;15.25;13.75;;;;;22.49;35.01;101056.47;5078607;27;45498;-75
2023/02/21 13:27:35;;;;;;;;;15.00;13.00;;;;;22.49;35.25;101052.97;5079647;27;48057;-75
2023/02/21 13:30:12;;;;;;;;;13.50;12.00;;;;;22.48;35.32;101040.59;5076118;27;45316;-75
2023/02/21 13:32:39;;;;;;;;;14.50;11.75;;;;;22.46;35.08;101035.38;5053677;28;45259;-75
2023/02/21 13:35:07;;;;;;;;;11.75;11.00;;;;;22.47;35.02;101031.75;5082095;27;45465;-75
2023/02/21 13:37:34;;;;;;;;;13.00;13.00;;;;;22.46;35.20;101029.19;5072698;27;45297;-75
2023/02/21 13:40:19;;;;;;;;;14.50;13.00;;;;;22.45;35.50;101020.34;5078369;28;45208;-75
2023/02/21 13:42:44;;;;;;;;;11.00;11.00;;;;;22.46;35.33;101015.84;5100160;27;45416;-75